Conner, Montana
Current Conditions -  °F | °C
As of 3:53 AM on Thursday 23 Oct 2014 (Local Time) from KMSO Reporting Station
Overcast Overcast  
Wind Chill: 51°   Ceiling: 6500
Heat Index: 51°   Visibility: 10mi
Dew Point: 39°   Wind: 0mph
Humidity: 63%   Direction: NA
Pressure: 29.9"   Gusts: NA
Location:  45.94°N, 114.11°W
Report Text: KMSO 230953Z AUTO 00000KT 10SM OVC065 11/04 A2990 RMK AO2 SLP120 T01060039
Loading
Personal Weather Stations






























Interactive Weather Map
Tropical Storm Tracking
New forecast layout! Learn more

10-Day Weather Forecast

Advertisements
Track Severe Weather on mobile